sensor_id;sensor_type;location;lat;lon;timestamp;P1;durP1;ratioP1;P2;durP2;ratioP2
29902;SDS011;30288;50.514;9.678;2022-07-29T00:00:34;9.52;;;2.28;;
29902;SDS011;30288;50.514;9.678;2022-07-29T00:02:47;8.77;;;2.55;;
29902;SDS011;30288;50.514;9.678;2022-07-29T00:05:00;12.55;;;2.63;;
29902;SDS011;30288;50.514;9.678;2022-07-29T00:07:12;12.48;;;2.78;;
29902;SDS011;30288;50.514;9.678;2022-07-29T00:09:34;8.88;;;2.45;;
29902;SDS011;30288;50.514;9.678;2022-07-29T00:11:52;8.00;;;1.95;;
29902;SDS011;30288;50.514;9.678;2022-07-29T00:14:07;11.60;;;2.40;;
29902;SDS011;30288;50.514;9.678;2022-07-29T00:16:25;8.68;;;1.83;;
29902;SDS011;30288;50.514;9.678;2022-07-29T00:18:38;5.03;;;2.10;;
29902;SDS011;30288;50.514;9.678;2022-07-29T00:20:50;7.32;;;2.15;;
29902;SDS011;30288;50.514;9.678;2022-07-29T00:23:07;10.10;;;2.33;;
29902;SDS011;30288;50.514;9.678;2022-07-29T00:28:13;9.57;;;2.08;;
29902;SDS011;30288;50.514;9.678;2022-07-29T00:30:30;10.00;;;2.10;;
29902;SDS011;30288;50.514;9.678;2022-07-29T00:32:41;8.85;;;2.10;;
29902;SDS011;30288;50.514;9.678;2022-07-29T00:34:58;8.15;;;2.25;;
29902;SDS011;30288;50.514;9.678;2022-07-29T00:37:23;7.50;;;2.25;;
29902;SDS011;30288;50.514;9.678;2022-07-29T00:39:41;7.47;;;2.05;;
29902;SDS011;30288;50.514;9.678;2022-07-29T00:41:53;7.57;;;2.50;;
29902;SDS011;30288;50.514;9.678;2022-07-29T00:44:13;7.38;;;2.33;;
29902;SDS011;30288;50.514;9.678;2022-07-29T00:46:25;11.45;;;2.53;;
29902;SDS011;30288;50.514;9.678;2022-07-29T00:48:37;6.13;;;1.85;;
29902;SDS011;30288;50.514;9.678;2022-07-29T00:50:49;9.82;;;2.15;;
29902;SDS011;30288;50.514;9.678;2022-07-29T00:53:02;6.07;;;1.90;;
29902;SDS011;30288;50.514;9.678;2022-07-29T00:55:15;5.85;;;2.20;;
29902;SDS011;30288;50.514;9.678;2022-07-29T00:57:27;5.38;;;2.60;;
29902;SDS011;30288;50.514;9.678;2022-07-29T00:59:42;6.45;;;2.40;;
29902;SDS011;30288;50.514;9.678;2022-07-29T01:01:59;6.13;;;2.10;;
29902;SDS011;30288;50.514;9.678;2022-07-29T01:04:11;7.97;;;3.30;;
29902;SDS011;30288;50.514;9.678;2022-07-29T01:06:24;6.63;;;2.00;;
29902;SDS011;30288;50.514;9.678;2022-07-29T01:08:42;7.93;;;2.33;;
29902;SDS011;30288;50.514;9.678;2022-07-29T01:10:57;8.55;;;2.30;;
29902;SDS011;30288;50.514;9.678;2022-07-29T01:13:16;9.25;;;2.28;;
29902;SDS011;30288;50.514;9.678;2022-07-29T01:15:32;10.95;;;2.58;;
29902;SDS011;30288;50.514;9.678;2022-07-29T01:17:52;7.30;;;2.88;;
29902;SDS011;30288;50.514;9.678;2022-07-29T01:20:19;9.05;;;1.98;;
29902;SDS011;30288;50.514;9.678;2022-07-29T01:22:46;7.10;;;2.20;;
29902;SDS011;30288;50.514;9.678;2022-07-29T01:38:22;11.52;;;2.22;;
29902;SDS011;30288;50.514;9.678;2022-07-29T01:40:45;8.88;;;2.88;;
29902;SDS011;30288;50.514;9.678;2022-07-29T01:43:03;9.25;;;2.60;;
29902;SDS011;30288;50.514;9.678;2022-07-29T01:45:24;9.20;;;2.40;;
29902;SDS011;30288;50.514;9.678;2022-07-29T01:47:52;7.15;;;2.15;;
29902;SDS011;30288;50.514;9.678;2022-07-29T01:50:11;7.82;;;2.10;;
29902;SDS011;30288;50.514;9.678;2022-07-29T01:52:34;8.05;;;2.22;;
29902;SDS011;30288;50.514;9.678;2022-07-29T01:54:57;7.25;;;1.70;;
29902;SDS011;30288;50.514;9.678;2022-07-29T01:57:19;4.40;;;1.70;;
29902;SDS011;30288;50.514;9.678;2022-07-29T01:59:35;6.50;;;2.17;;
29902;SDS011;30288;50.514;9.678;2022-07-29T02:01:54;8.45;;;2.28;;
29902;SDS011;30288;50.514;9.678;2022-07-29T02:04:09;8.93;;;1.77;;
29902;SDS011;30288;50.514;9.678;2022-07-29T02:06:28;7.18;;;2.03;;
29902;SDS011;30288;50.514;9.678;2022-07-29T02:08:42;4.13;;;1.63;;
29902;SDS011;30288;50.514;9.678;2022-07-29T02:11:01;7.22;;;2.00;;
29902;SDS011;30288;50.514;9.678;2022-07-29T02:13:20;4.15;;;2.10;;
29902;SDS011;30288;50.514;9.678;2022-07-29T02:15:34;11.07;;;2.20;;
29902;SDS011;30288;50.514;9.678;2022-07-29T02:17:53;7.40;;;2.08;;
29902;SDS011;30288;50.514;9.678;2022-07-29T02:20:11;8.20;;;2.33;;
29902;SDS011;30288;50.514;9.678;2022-07-29T02:22:25;8.63;;;2.17;;
29902;SDS011;30288;50.514;9.678;2022-07-29T02:24:46;10.18;;;1.85;;
29902;SDS011;30288;50.514;9.678;2022-07-29T02:27:02;3.78;;;1.90;;
29902;SDS011;30288;50.514;9.678;2022-07-29T02:29:21;7.85;;;2.30;;
29902;SDS011;30288;50.514;9.678;2022-07-29T02:31:36;8.52;;;2.13;;
29902;SDS011;30288;50.514;9.678;2022-07-29T02:33:56;5.53;;;2.25;;
29902;SDS011;30288;50.514;9.678;2022-07-29T02:36:10;7.43;;;2.65;;
29902;SDS011;30288;50.514;9.678;2022-07-29T02:38:27;6.88;;;2.17;;
29902;SDS011;30288;50.514;9.678;2022-07-29T02:40:53;6.85;;;2.22;;
29902;SDS011;30288;50.514;9.678;2022-07-29T02:43:17;9.32;;;2.63;;
29902;SDS011;30288;50.514;9.678;2022-07-29T02:45:30;9.35;;;2.50;;
29902;SDS011;30288;50.514;9.678;2022-07-29T02:47:48;6.35;;;2.42;;
29902;SDS011;30288;50.514;9.678;2022-07-29T02:50:02;4.80;;;1.95;;
29902;SDS011;30288;50.514;9.678;2022-07-29T02:52:26;10.13;;;2.42;;
29902;SDS011;30288;50.514;9.678;2022-07-29T02:54:44;5.53;;;2.05;;
29902;SDS011;30288;50.514;9.678;2022-07-29T02:57:09;8.30;;;1.92;;
29902;SDS011;30288;50.514;9.678;2022-07-29T02:59:32;6.10;;;2.00;;
29902;SDS011;30288;50.514;9.678;2022-07-29T03:01:41;9.45;;;2.05;;
29902;SDS011;30288;50.514;9.678;2022-07-29T03:04:00;7.95;;;2.10;;
29902;SDS011;30288;50.514;9.678;2022-07-29T03:06:14;7.55;;;2.40;;
29902;SDS011;30288;50.514;9.678;2022-07-29T03:08:33;6.47;;;2.10;;
29902;SDS011;30288;50.514;9.678;2022-07-29T03:10:46;7.00;;;2.17;;
29902;SDS011;30288;50.514;9.678;2022-07-29T03:12:58;7.78;;;2.17;;
29902;SDS011;30288;50.514;9.678;2022-07-29T03:15:20;5.78;;;2.00;;
29902;SDS011;30288;50.514;9.678;2022-07-29T03:17:32;6.70;;;2.08;;
29902;SDS011;30288;50.514;9.678;2022-07-29T03:19:50;10.05;;;2.20;;
29902;SDS011;30288;50.514;9.678;2022-07-29T03:22:02;6.75;;;2.00;;
29902;SDS011;30288;50.514;9.678;2022-07-29T03:24:33;5.97;;;2.08;;
29902;SDS011;30288;50.514;9.678;2022-07-29T03:26:45;7.72;;;2.22;;
29902;SDS011;30288;50.514;9.678;2022-07-29T03:29:02;8.82;;;2.30;;
29902;SDS011;30288;50.514;9.678;2022-07-29T03:31:17;7.93;;;2.20;;
29902;SDS011;30288;50.514;9.678;2022-07-29T03:33:34;5.30;;;2.03;;
29902;SDS011;30288;50.514;9.678;2022-07-29T03:35:46;6.07;;;2.30;;
29902;SDS011;30288;50.514;9.678;2022-07-29T03:37:57;10.80;;;2.38;;
29902;SDS011;30288;50.514;9.678;2022-07-29T03:40:16;7.40;;;2.22;;
29902;SDS011;30288;50.514;9.678;2022-07-29T03:42:32;6.82;;;2.35;;
29902;SDS011;30288;50.514;9.678;2022-07-29T03:44:52;8.70;;;2.17;;
29902;SDS011;30288;50.514;9.678;2022-07-29T03:47:09;7.18;;;2.30;;
29902;SDS011;30288;50.514;9.678;2022-07-29T03:49:24;5.35;;;2.00;;
29902;SDS011;30288;50.514;9.678;2022-07-29T03:51:37;5.90;;;2.28;;
29902;SDS011;30288;50.514;9.678;2022-07-29T03:53:49;7.15;;;2.25;;
29902;SDS011;30288;50.514;9.678;2022-07-29T03:56:03;7.18;;;2.20;;
29902;SDS011;30288;50.514;9.678;2022-07-29T03:58:23;5.43;;;2.35;;
29902;SDS011;30288;50.514;9.678;2022-07-29T04:00:39;5.75;;;2.05;;
29902;SDS011;30288;50.514;9.678;2022-07-29T04:03:03;7.82;;;2.30;;
29902;SDS011;30288;50.514;9.678;2022-07-29T04:05:18;7.05;;;2.60;;
29902;SDS011;30288;50.514;9.678;2022-07-29T04:07:29;6.50;;;2.15;;
29902;SDS011;30288;50.514;9.678;2022-07-29T04:09:46;9.65;;;2.55;;
29902;SDS011;30288;50.514;9.678;2022-07-29T04:11:57;7.22;;;2.13;;
29902;SDS011;30288;50.514;9.678;2022-07-29T04:14:10;5.40;;;2.05;;
29902;SDS011;30288;50.514;9.678;2022-07-29T04:16:27;8.10;;;2.42;;
29902;SDS011;30288;50.514;9.678;2022-07-29T04:18:42;7.40;;;2.17;;
29902;SDS011;30288;50.514;9.678;2022-07-29T04:20:53;7.00;;;2.40;;
29902;SDS011;30288;50.514;9.678;2022-07-29T04:23:08;5.85;;;2.30;;
29902;SDS011;30288;50.514;9.678;2022-07-29T04:25:20;7.88;;;2.00;;
29902;SDS011;30288;50.514;9.678;2022-07-29T04:27:37;10.10;;;2.28;;
29902;SDS011;30288;50.514;9.678;2022-07-29T04:30:08;8.85;;;2.20;;
29902;SDS011;30288;50.514;9.678;2022-07-29T04:32:28;6.07;;;2.40;;
29902;SDS011;30288;50.514;9.678;2022-07-29T04:34:43;5.43;;;2.00;;
29902;SDS011;30288;50.514;9.678;2022-07-29T04:36:55;5.78;;;2.55;;
29902;SDS011;30288;50.514;9.678;2022-07-29T04:39:06;6.45;;;2.03;;
29902;SDS011;30288;50.514;9.678;2022-07-29T04:41:18;7.30;;;2.33;;
29902;SDS011;30288;50.514;9.678;2022-07-29T04:43:33;7.82;;;2.70;;
29902;SDS011;30288;50.514;9.678;2022-07-29T04:45:44;6.63;;;1.95;;
29902;SDS011;30288;50.514;9.678;2022-07-29T04:47:58;8.00;;;2.25;;
29902;SDS011;30288;50.514;9.678;2022-07-29T04:50:13;12.50;;;2.67;;
29902;SDS011;30288;50.514;9.678;2022-07-29T04:52:24;7.32;;;2.50;;
29902;SDS011;30288;50.514;9.678;2022-07-29T04:54:35;7.13;;;2.40;;
29902;SDS011;30288;50.514;9.678;2022-07-29T04:56:46;12.57;;;2.72;;
29902;SDS011;30288;50.514;9.678;2022-07-29T04:59:03;11.00;;;2.60;;
29902;SDS011;30288;50.514;9.678;2022-07-29T05:01:14;6.18;;;2.50;;
29902;SDS011;30288;50.514;9.678;2022-07-29T05:03:31;8.68;;;2.38;;
29902;SDS011;30288;50.514;9.678;2022-07-29T05:05:45;8.10;;;2.20;;
29902;SDS011;30288;50.514;9.678;2022-07-29T05:07:56;7.15;;;2.75;;
29902;SDS011;30288;50.514;9.678;2022-07-29T05:10:14;7.50;;;2.72;;
29902;SDS011;30288;50.514;9.678;2022-07-29T05:12:25;7.65;;;2.70;;
29902;SDS011;30288;50.514;9.678;2022-07-29T05:14:42;5.32;;;2.08;;
29902;SDS011;30288;50.514;9.678;2022-07-29T05:16:54;9.50;;;2.50;;
29902;SDS011;30288;50.514;9.678;2022-07-29T05:19:06;8.18;;;2.47;;
29902;SDS011;30288;50.514;9.678;2022-07-29T05:21:26;10.65;;;2.70;;
29902;SDS011;30288;50.514;9.678;2022-07-29T05:23:38;12.05;;;2.88;;
29902;SDS011;30288;50.514;9.678;2022-07-29T05:25:50;6.43;;;2.50;;
29902;SDS011;30288;50.514;9.678;2022-07-29T05:28:07;12.00;;;2.83;;
29902;SDS011;30288;50.514;9.678;2022-07-29T05:30:20;8.40;;;2.30;;
29902;SDS011;30288;50.514;9.678;2022-07-29T05:32:33;7.55;;;2.20;;
29902;SDS011;30288;50.514;9.678;2022-07-29T05:34:47;7.75;;;2.10;;
29902;SDS011;30288;50.514;9.678;2022-07-29T05:37:01;11.77;;;3.67;;
29902;SDS011;30288;50.514;9.678;2022-07-29T05:39:12;7.38;;;2.35;;
29902;SDS011;30288;50.514;9.678;2022-07-29T05:41:25;8.35;;;2.60;;
29902;SDS011;30288;50.514;9.678;2022-07-29T05:43:36;11.50;;;2.38;;
29902;SDS011;30288;50.514;9.678;2022-07-29T05:45:47;8.68;;;2.53;;
29902;SDS011;30288;50.514;9.678;2022-07-29T05:48:04;7.68;;;2.15;;
29902;SDS011;30288;50.514;9.678;2022-07-29T05:50:17;9.80;;;2.40;;
29902;SDS011;30288;50.514;9.678;2022-07-29T05:52:36;9.73;;;2.60;;
29902;SDS011;30288;50.514;9.678;2022-07-29T05:54:53;8.38;;;2.10;;
29902;SDS011;30288;50.514;9.678;2022-07-29T05:57:04;6.65;;;1.92;;
29902;SDS011;30288;50.514;9.678;2022-07-29T06:10:18;9.05;;;2.55;;
29902;SDS011;30288;50.514;9.678;2022-07-29T06:12:32;10.05;;;2.85;;
29902;SDS011;30288;50.514;9.678;2022-07-29T06:14:49;11.75;;;2.50;;
29902;SDS011;30288;50.514;9.678;2022-07-29T06:17:01;9.88;;;2.47;;
29902;SDS011;30288;50.514;9.678;2022-07-29T06:19:17;13.55;;;2.75;;
29902;SDS011;30288;50.514;9.678;2022-07-29T06:21:29;7.65;;;2.50;;
29902;SDS011;30288;50.514;9.678;2022-07-29T06:23:49;10.23;;;3.13;;
29902;SDS011;30288;50.514;9.678;2022-07-29T06:48:43;11.23;;;3.20;;
29902;SDS011;30288;50.514;9.678;2022-07-29T06:51:00;11.95;;;3.47;;
29902;SDS011;30288;50.514;9.678;2022-07-29T06:53:12;12.25;;;3.65;;
29902;SDS011;30288;50.514;9.678;2022-07-29T06:55:30;12.32;;;3.28;;
29902;SDS011;30288;50.514;9.678;2022-07-29T06:57:41;11.25;;;3.60;;
29902;SDS011;30288;50.514;9.678;2022-07-29T06:59:58;9.98;;;3.30;;
29902;SDS011;30288;50.514;9.678;2022-07-29T07:02:11;7.85;;;3.25;;
29902;SDS011;30288;50.514;9.678;2022-07-29T07:04:26;12.05;;;4.03;;
29902;SDS011;30288;50.514;9.678;2022-07-29T07:06:43;13.55;;;3.90;;
29902;SDS011;30288;50.514;9.678;2022-07-29T07:08:55;9.27;;;3.58;;
29902;SDS011;30288;50.514;9.678;2022-07-29T07:11:06;9.98;;;3.75;;
29902;SDS011;30288;50.514;9.678;2022-07-29T07:13:23;7.72;;;2.97;;
29902;SDS011;30288;50.514;9.678;2022-07-29T07:15:36;11.98;;;3.97;;
29902;SDS011;30288;50.514;9.678;2022-07-29T07:17:53;8.07;;;3.13;;
29902;SDS011;30288;50.514;9.678;2022-07-29T07:20:07;9.23;;;3.50;;
29902;SDS011;30288;50.514;9.678;2022-07-29T07:22:25;11.15;;;4.05;;
29902;SDS011;30288;50.514;9.678;2022-07-29T07:24:42;9.18;;;3.92;;
29902;SDS011;30288;50.514;9.678;2022-07-29T07:26:53;13.55;;;3.95;;
29902;SDS011;30288;50.514;9.678;2022-07-29T07:29:11;13.13;;;3.78;;
29902;SDS011;30288;50.514;9.678;2022-07-29T07:31:22;8.82;;;4.25;;
29902;SDS011;30288;50.514;9.678;2022-07-29T07:33:38;7.90;;;3.55;;
29902;SDS011;30288;50.514;9.678;2022-07-29T07:35:52;8.75;;;3.63;;
29902;SDS011;30288;50.514;9.678;2022-07-29T07:38:10;8.77;;;3.20;;
29902;SDS011;30288;50.514;9.678;2022-07-29T07:40:22;10.70;;;3.30;;
29902;SDS011;30288;50.514;9.678;2022-07-29T07:42:34;10.18;;;3.50;;
29902;SDS011;30288;50.514;9.678;2022-07-29T07:44:51;10.18;;;3.28;;
29902;SDS011;30288;50.514;9.678;2022-07-29T07:49:26;10.07;;;3.45;;
29902;SDS011;30288;50.514;9.678;2022-07-29T07:51:45;8.15;;;3.47;;
29902;SDS011;30288;50.514;9.678;2022-07-29T07:53:57;12.73;;;3.42;;
29902;SDS011;30288;50.514;9.678;2022-07-29T07:56:11;9.35;;;3.22;;
29902;SDS011;30288;50.514;9.678;2022-07-29T07:58:28;12.00;;;3.70;;
29902;SDS011;30288;50.514;9.678;2022-07-29T08:00:40;10.90;;;3.25;;
29902;SDS011;30288;50.514;9.678;2022-07-29T08:02:57;10.27;;;3.25;;
29902;SDS011;30288;50.514;9.678;2022-07-29T08:05:14;11.63;;;3.55;;
29902;SDS011;30288;50.514;9.678;2022-07-29T08:07:30;10.57;;;3.83;;
29902;SDS011;30288;50.514;9.678;2022-07-29T08:09:42;11.88;;;3.45;;
29902;SDS011;30288;50.514;9.678;2022-07-29T08:12:00;14.10;;;3.60;;
29902;SDS011;30288;50.514;9.678;2022-07-29T08:14:14;13.60;;;4.22;;
29902;SDS011;30288;50.514;9.678;2022-07-29T08:16:31;9.73;;;3.55;;
29902;SDS011;30288;50.514;9.678;2022-07-29T08:18:43;11.25;;;3.88;;
29902;SDS011;30288;50.514;9.678;2022-07-29T08:21:02;11.65;;;3.85;;
29902;SDS011;30288;50.514;9.678;2022-07-29T08:23:16;12.80;;;3.80;;
29902;SDS011;30288;50.514;9.678;2022-07-29T08:25:35;11.52;;;4.00;;
29902;SDS011;30288;50.514;9.678;2022-07-29T08:27:48;11.45;;;3.83;;
29902;SDS011;30288;50.514;9.678;2022-07-29T08:30:00;10.85;;;3.90;;
29902;SDS011;30288;50.514;9.678;2022-07-29T08:32:17;9.82;;;4.10;;
29902;SDS011;30288;50.514;9.678;2022-07-29T08:34:42;12.55;;;4.13;;
29902;SDS011;30288;50.514;9.678;2022-07-29T08:36:54;7.97;;;3.67;;
29902;SDS011;30288;50.514;9.678;2022-07-29T08:39:08;10.38;;;4.50;;
29902;SDS011;30288;50.514;9.678;2022-07-29T08:41:20;11.38;;;4.60;;
29902;SDS011;30288;50.514;9.678;2022-07-29T08:43:32;10.20;;;4.57;;
29902;SDS011;30288;50.514;9.678;2022-07-29T08:45:51;14.55;;;5.10;;
29902;SDS011;30288;50.514;9.678;2022-07-29T08:48:03;11.13;;;4.82;;
29902;SDS011;30288;50.514;9.678;2022-07-29T08:50:21;13.10;;;4.60;;
29902;SDS011;30288;50.514;9.678;2022-07-29T08:52:34;11.45;;;4.20;;
29902;SDS011;30288;50.514;9.678;2022-07-29T08:54:50;12.73;;;4.18;;
29902;SDS011;30288;50.514;9.678;2022-07-29T08:57:09;9.18;;;4.28;;
29902;SDS011;30288;50.514;9.678;2022-07-29T09:10:27;12.38;;;3.97;;
29902;SDS011;30288;50.514;9.678;2022-07-29T09:12:45;12.27;;;4.43;;
29902;SDS011;30288;50.514;9.678;2022-07-29T09:14:57;13.95;;;4.68;;
29902;SDS011;30288;50.514;9.678;2022-07-29T09:17:18;12.73;;;4.25;;
29902;SDS011;30288;50.514;9.678;2022-07-29T09:20:08;11.02;;;3.97;;
29902;SDS011;30288;50.514;9.678;2022-07-29T09:22:28;11.07;;;4.47;;
29902;SDS011;30288;50.514;9.678;2022-07-29T09:24:47;12.80;;;4.43;;
29902;SDS011;30288;50.514;9.678;2022-07-29T09:26:58;13.93;;;5.07;;
29902;SDS011;30288;50.514;9.678;2022-07-29T09:29:15;12.38;;;4.30;;
29902;SDS011;30288;50.514;9.678;2022-07-29T09:31:32;12.40;;;3.85;;
29902;SDS011;30288;50.514;9.678;2022-07-29T09:33:53;9.07;;;4.20;;
29902;SDS011;30288;50.514;9.678;2022-07-29T09:36:08;11.27;;;4.60;;
29902;SDS011;30288;50.514;9.678;2022-07-29T09:38:26;13.45;;;4.03;;
29902;SDS011;30288;50.514;9.678;2022-07-29T09:40:38;9.93;;;4.07;;
29902;SDS011;30288;50.514;9.678;2022-07-29T09:42:56;12.23;;;4.13;;
29902;SDS011;30288;50.514;9.678;2022-07-29T09:45:08;10.75;;;3.90;;
29902;SDS011;30288;50.514;9.678;2022-07-29T09:47:39;9.95;;;4.20;;
29902;SDS011;30288;50.514;9.678;2022-07-29T09:49:58;11.23;;;3.78;;
29902;SDS011;30288;50.514;9.678;2022-07-29T09:52:10;8.68;;;3.85;;
29902;SDS011;30288;50.514;9.678;2022-07-29T09:54:27;15.07;;;4.10;;
29902;SDS011;30288;50.514;9.678;2022-07-29T09:56:44;11.73;;;4.05;;
29902;SDS011;30288;50.514;9.678;2022-07-29T09:59:04;11.50;;;4.65;;
29902;SDS011;30288;50.514;9.678;2022-07-29T10:01:17;9.75;;;4.00;;
29902;SDS011;30288;50.514;9.678;2022-07-29T10:03:49;9.27;;;4.30;;
29902;SDS011;30288;50.514;9.678;2022-07-29T10:06:08;9.02;;;4.28;;
29902;SDS011;30288;50.514;9.678;2022-07-29T10:08:24;14.18;;;4.15;;
29902;SDS011;30288;50.514;9.678;2022-07-29T10:10:37;14.07;;;4.85;;
29902;SDS011;30288;50.514;9.678;2022-07-29T10:12:57;7.75;;;3.88;;
29902;SDS011;30288;50.514;9.678;2022-07-29T10:15:18;11.07;;;4.20;;
29902;SDS011;30288;50.514;9.678;2022-07-29T10:17:31;8.25;;;3.72;;
29902;SDS011;30288;50.514;9.678;2022-07-29T10:19:48;10.68;;;4.22;;
29902;SDS011;30288;50.514;9.678;2022-07-29T10:22:03;12.23;;;4.00;;
29902;SDS011;30288;50.514;9.678;2022-07-29T10:24:24;12.60;;;4.38;;
29902;SDS011;30288;50.514;9.678;2022-07-29T10:26:37;11.32;;;4.93;;
29902;SDS011;30288;50.514;9.678;2022-07-29T10:28:49;9.13;;;5.05;;
29902;SDS011;30288;50.514;9.678;2022-07-29T10:31:06;8.70;;;4.32;;
29902;SDS011;30288;50.514;9.678;2022-07-29T10:33:32;9.77;;;4.82;;
29902;SDS011;30288;50.514;9.678;2022-07-29T10:36:07;10.65;;;4.60;;
29902;SDS011;30288;50.514;9.678;2022-07-29T10:38:47;11.38;;;4.63;;
29902;SDS011;30288;50.514;9.678;2022-07-29T10:41:11;8.52;;;4.63;;
29902;SDS011;30288;50.514;9.678;2022-07-29T10:43:44;12.43;;;4.53;;
29902;SDS011;30288;50.514;9.678;2022-07-29T10:46:05;12.82;;;4.95;;
29902;SDS011;30288;50.514;9.678;2022-07-29T10:48:17;11.32;;;4.85;;
29902;SDS011;30288;50.514;9.678;2022-07-29T10:50:51;10.20;;;4.93;;
29902;SDS011;30288;50.514;9.678;2022-07-29T10:53:05;10.85;;;4.78;;
29902;SDS011;30288;50.514;9.678;2022-07-29T10:55:35;9.90;;;4.18;;
29902;SDS011;30288;50.514;9.678;2022-07-29T11:00:29;12.35;;;4.82;;
29902;SDS011;30288;50.514;9.678;2022-07-29T11:02:49;10.02;;;4.63;;
29902;SDS011;30288;50.514;9.678;2022-07-29T11:05:03;10.20;;;4.53;;
29902;SDS011;30288;50.514;9.678;2022-07-29T11:07:22;8.40;;;4.47;;
29902;SDS011;30288;50.514;9.678;2022-07-29T11:09:54;10.43;;;4.88;;
29902;SDS011;30288;50.514;9.678;2022-07-29T11:12:48;12.10;;;4.32;;
29902;SDS011;30288;50.514;9.678;2022-07-29T11:15:01;11.60;;;4.72;;
29902;SDS011;30288;50.514;9.678;2022-07-29T11:17:19;11.18;;;4.88;;
29902;SDS011;30288;50.514;9.678;2022-07-29T11:19:31;11.45;;;5.68;;
29902;SDS011;30288;50.514;9.678;2022-07-29T11:21:50;8.85;;;4.22;;
29902;SDS011;30288;50.514;9.678;2022-07-29T11:24:16;13.85;;;3.97;;
29902;SDS011;30288;50.514;9.678;2022-07-29T11:26:40;10.07;;;3.42;;
29902;SDS011;30288;50.514;9.678;2022-07-29T11:29:03;9.45;;;3.72;;
29902;SDS011;30288;50.514;9.678;2022-07-29T11:31:33;9.52;;;3.53;;
29902;SDS011;30288;50.514;9.678;2022-07-29T11:33:49;10.52;;;3.92;;
29902;SDS011;30288;50.514;9.678;2022-07-29T11:36:09;10.48;;;3.75;;
29902;SDS011;30288;50.514;9.678;2022-07-29T11:38:24;7.68;;;3.38;;
29902;SDS011;30288;50.514;9.678;2022-07-29T11:40:39;7.00;;;3.25;;
29902;SDS011;30288;50.514;9.678;2022-07-29T11:42:57;7.72;;;3.38;;
29902;SDS011;30288;50.514;9.678;2022-07-29T11:45:17;8.63;;;3.10;;
29902;SDS011;30288;50.514;9.678;2022-07-29T11:48:01;9.25;;;3.17;;
29902;SDS011;30288;50.514;9.678;2022-07-29T11:50:29;5.90;;;2.83;;
29902;SDS011;30288;50.514;9.678;2022-07-29T11:52:49;8.55;;;3.03;;
29902;SDS011;30288;50.514;9.678;2022-07-29T11:55:06;11.55;;;3.90;;
29902;SDS011;30288;50.514;9.678;2022-07-29T12:00:10;8.98;;;3.47;;
29902;SDS011;30288;50.514;9.678;2022-07-29T12:02:40;5.60;;;2.83;;
29902;SDS011;30288;50.514;9.678;2022-07-29T12:04:55;8.40;;;3.30;;
29902;SDS011;30288;50.514;9.678;2022-07-29T12:07:11;6.13;;;3.10;;
29902;SDS011;30288;50.514;9.678;2022-07-29T12:09:28;7.40;;;3.33;;
29902;SDS011;30288;50.514;9.678;2022-07-29T12:11:48;7.93;;;2.85;;
29902;SDS011;30288;50.514;9.678;2022-07-29T12:14:24;7.85;;;3.00;;
29902;SDS011;30288;50.514;9.678;2022-07-29T12:16:37;6.70;;;2.97;;
29902;SDS011;30288;50.514;9.678;2022-07-29T12:19:01;9.77;;;2.97;;
29902;SDS011;30288;50.514;9.678;2022-07-29T12:21:20;6.03;;;2.53;;
29902;SDS011;30288;50.514;9.678;2022-07-29T12:23:32;10.47;;;3.30;;
29902;SDS011;30288;50.514;9.678;2022-07-29T12:25:50;8.13;;;2.70;;
29902;SDS011;30288;50.514;9.678;2022-07-29T12:28:03;5.28;;;2.40;;
29902;SDS011;30288;50.514;9.678;2022-07-29T12:30:21;5.00;;;2.70;;
29902;SDS011;30288;50.514;9.678;2022-07-29T12:32:38;6.95;;;3.08;;
29902;SDS011;30288;50.514;9.678;2022-07-29T12:34:55;6.07;;;2.90;;
29902;SDS011;30288;50.514;9.678;2022-07-29T12:37:16;5.30;;;2.67;;
29902;SDS011;30288;50.514;9.678;2022-07-29T12:39:34;8.52;;;3.33;;
29902;SDS011;30288;50.514;9.678;2022-07-29T12:41:46;8.65;;;2.80;;
29902;SDS011;30288;50.514;9.678;2022-07-29T12:43:57;5.90;;;3.15;;
29902;SDS011;30288;50.514;9.678;2022-07-29T12:46:14;10.40;;;2.88;;
29902;SDS011;30288;50.514;9.678;2022-07-29T12:48:32;5.22;;;2.40;;
29902;SDS011;30288;50.514;9.678;2022-07-29T12:50:56;7.80;;;2.60;;
29902;SDS011;30288;50.514;9.678;2022-07-29T12:53:15;6.18;;;2.17;;
29902;SDS011;30288;50.514;9.678;2022-07-29T12:55:42;4.95;;;2.45;;
29902;SDS011;30288;50.514;9.678;2022-07-29T12:57:57;7.00;;;2.53;;
29902;SDS011;30288;50.514;9.678;2022-07-29T13:00:14;6.30;;;2.58;;
29902;SDS011;30288;50.514;9.678;2022-07-29T13:02:27;3.33;;;2.15;;
29902;SDS011;30288;50.514;9.678;2022-07-29T13:04:39;5.78;;;2.70;;
29902;SDS011;30288;50.514;9.678;2022-07-29T13:07:02;5.38;;;2.15;;
29902;SDS011;30288;50.514;9.678;2022-07-29T13:09:18;4.35;;;2.30;;
29902;SDS011;30288;50.514;9.678;2022-07-29T13:11:31;5.35;;;2.13;;
29902;SDS011;30288;50.514;9.678;2022-07-29T13:13:50;6.00;;;2.10;;
29902;SDS011;30288;50.514;9.678;2022-07-29T13:16:08;4.32;;;2.08;;
29902;SDS011;30288;50.514;9.678;2022-07-29T13:18:28;4.35;;;1.95;;
29902;SDS011;30288;50.514;9.678;2022-07-29T13:20:47;5.03;;;2.30;;
29902;SDS011;30288;50.514;9.678;2022-07-29T13:23:01;3.30;;;2.15;;
29902;SDS011;30288;50.514;9.678;2022-07-29T13:38:21;6.43;;;2.20;;
29902;SDS011;30288;50.514;9.678;2022-07-29T13:40:38;4.15;;;2.17;;
29902;SDS011;30288;50.514;9.678;2022-07-29T13:42:55;5.63;;;2.10;;
29902;SDS011;30288;50.514;9.678;2022-07-29T13:45:08;3.40;;;2.03;;
29902;SDS011;30288;50.514;9.678;2022-07-29T13:47:21;3.97;;;2.22;;
29902;SDS011;30288;50.514;9.678;2022-07-29T13:49:39;3.15;;;1.83;;
29902;SDS011;30288;50.514;9.678;2022-07-29T13:51:51;4.43;;;2.03;;
29902;SDS011;30288;50.514;9.678;2022-07-29T13:54:05;4.07;;;1.75;;
29902;SDS011;30288;50.514;9.678;2022-07-29T13:56:17;5.65;;;2.58;;
29902;SDS011;30288;50.514;9.678;2022-07-29T13:58:28;3.30;;;1.92;;
29902;SDS011;30288;50.514;9.678;2022-07-29T14:00:39;5.63;;;2.15;;
29902;SDS011;30288;50.514;9.678;2022-07-29T14:02:56;6.60;;;2.22;;
29902;SDS011;30288;50.514;9.678;2022-07-29T14:05:08;3.83;;;1.75;;
29902;SDS011;30288;50.514;9.678;2022-07-29T14:07:20;3.75;;;2.05;;
29902;SDS011;30288;50.514;9.678;2022-07-29T14:09:40;4.22;;;1.70;;
29902;SDS011;30288;50.514;9.678;2022-07-29T14:11:52;3.22;;;1.98;;
29902;SDS011;30288;50.514;9.678;2022-07-29T14:14:04;3.15;;;1.80;;
29902;SDS011;30288;50.514;9.678;2022-07-29T14:16:21;4.75;;;2.17;;
29902;SDS011;30288;50.514;9.678;2022-07-29T14:18:32;3.67;;;2.15;;
29902;SDS011;30288;50.514;9.678;2022-07-29T14:20:49;4.40;;;2.35;;
29902;SDS011;30288;50.514;9.678;2022-07-29T14:23:01;3.92;;;2.13;;
29902;SDS011;30288;50.514;9.678;2022-07-29T14:25:15;3.97;;;2.55;;
29902;SDS011;30288;50.514;9.678;2022-07-29T14:27:27;5.53;;;2.15;;
29902;SDS011;30288;50.514;9.678;2022-07-29T14:29:45;4.63;;;2.38;;
29902;SDS011;30288;50.514;9.678;2022-07-29T14:32:02;3.85;;;1.98;;
29902;SDS011;30288;50.514;9.678;2022-07-29T14:34:15;3.75;;;2.15;;
29902;SDS011;30288;50.514;9.678;2022-07-29T14:36:26;6.85;;;2.83;;
29902;SDS011;30288;50.514;9.678;2022-07-29T14:38:43;4.78;;;2.17;;
29902;SDS011;30288;50.514;9.678;2022-07-29T14:40:56;3.95;;;2.22;;
29902;SDS011;30288;50.514;9.678;2022-07-29T14:43:08;4.55;;;2.28;;
29902;SDS011;30288;50.514;9.678;2022-07-29T14:45:25;5.90;;;2.35;;
29902;SDS011;30288;50.514;9.678;2022-07-29T14:47:37;6.28;;;2.60;;
29902;SDS011;30288;50.514;9.678;2022-07-29T14:49:55;5.13;;;2.30;;
29902;SDS011;30288;50.514;9.678;2022-07-29T14:52:07;5.75;;;2.53;;
29902;SDS011;30288;50.514;9.678;2022-07-29T14:54:24;4.22;;;2.25;;
29902;SDS011;30288;50.514;9.678;2022-07-29T14:56:37;5.40;;;2.40;;
29902;SDS011;30288;50.514;9.678;2022-07-29T15:08:38;3.75;;;2.08;;
29902;SDS011;30288;50.514;9.678;2022-07-29T15:10:43;4.43;;;2.30;;